createdAt,value
2022-12-18T00:01:16.125Z,13.50
2022-12-18T00:03:43.009Z,13.70
2022-12-18T00:06:10.209Z,14.30
2022-12-18T00:08:36.954Z,14.13
2022-12-18T00:11:08.749Z,14.80
2022-12-18T00:13:36.442Z,15.00
2022-12-18T00:16:05.387Z,14.02
2022-12-18T00:18:32.351Z,15.93
2022-12-18T00:21:01.703Z,15.85
2022-12-18T00:23:29.092Z,14.80
2022-12-18T00:25:55.698Z,14.40
2022-12-18T00:28:22.107Z,13.82
2022-12-18T00:30:52.248Z,12.60
2022-12-18T00:33:18.988Z,13.80
2022-12-18T00:35:45.426Z,13.60
2022-12-18T00:38:11.827Z,12.95
2022-12-18T00:40:38.311Z,12.38
2022-12-18T00:43:04.738Z,14.80
2022-12-18T00:45:31.983Z,9.93
2022-12-18T00:47:58.558Z,13.88
2022-12-18T00:50:25.960Z,11.57
2022-12-18T00:52:52.815Z,13.70
2022-12-18T00:55:19.640Z,14.45
2022-12-18T00:57:47.102Z,13.50
2022-12-18T01:00:15.837Z,14.73
2022-12-18T01:02:43.462Z,16.00
2022-12-18T01:05:12.022Z,15.82
2022-12-18T01:07:38.591Z,14.07
2022-12-18T01:10:06.289Z,15.13
2022-12-18T01:12:35.751Z,13.63
2022-12-18T01:15:02.417Z,11.90
2022-12-18T01:17:28.944Z,13.43
2022-12-18T01:19:55.396Z,14.05
2022-12-18T01:22:21.804Z,10.90
2022-12-18T01:24:48.248Z,14.02
2022-12-18T01:27:14.706Z,13.43
2022-12-18T01:29:41.165Z,13.15
2022-12-18T01:32:09.425Z,11.65
2022-12-18T01:34:39.063Z,10.95
2022-12-18T01:37:06.167Z,11.75
2022-12-18T01:39:33.179Z,13.35
2022-12-18T01:42:03.841Z,11.75
2022-12-18T01:44:58.034Z,12.85
2022-12-18T01:47:29.477Z,14.05
2022-12-18T01:49:58.077Z,13.38
2022-12-18T01:52:27.054Z,12.52
2022-12-18T01:54:54.114Z,12.68
2022-12-18T01:57:21.431Z,13.13
2022-12-18T01:59:53.536Z,14.55
2022-12-18T02:02:22.006Z,13.18
2022-12-18T02:04:49.703Z,11.45
2022-12-18T02:07:36.561Z,12.02
2022-12-18T02:10:27.553Z,13.60
2022-12-18T02:13:12.402Z,13.25
2022-12-18T02:18:28.180Z,14.40
2022-12-18T02:24:16.981Z,14.32
2022-12-18T02:27:06.316Z,12.23
2022-12-18T02:29:38.498Z,12.25
2022-12-18T02:32:10.218Z,12.32
2022-12-18T02:34:39.534Z,12.45
2022-12-18T02:37:13.891Z,12.35
2022-12-18T02:39:44.316Z,9.23
2022-12-18T02:42:14.300Z,11.98
2022-12-18T02:44:50.360Z,11.10
2022-12-18T02:47:23.977Z,11.45
2022-12-18T02:50:20.367Z,11.15
2022-12-18T02:52:55.123Z,9.52
2022-12-18T02:55:46.506Z,8.95
2022-12-18T02:58:21.897Z,11.77
2022-12-18T03:01:07.097Z,12.25
2022-12-18T03:03:53.832Z,11.82
2022-12-18T03:06:32.870Z,11.05
2022-12-18T03:09:06.900Z,12.50
2022-12-18T03:11:56.501Z,11.07
2022-12-18T03:14:25.068Z,11.05
2022-12-18T03:16:55.651Z,11.75
2022-12-18T03:19:26.908Z,11.80
2022-12-18T03:21:59.596Z,12.95
2022-12-18T03:24:28.794Z,12.68
2022-12-18T03:27:00.992Z,12.18
2022-12-18T03:29:36.821Z,12.18
2022-12-18T03:32:13.174Z,11.43
2022-12-18T03:34:43.225Z,9.82
2022-12-18T03:37:13.011Z,12.63
2022-12-18T03:39:41.794Z,13.55
2022-12-18T03:42:26.731Z,13.02
2022-12-18T03:45:13.380Z,13.68
2022-12-18T03:48:15.316Z,13.23
2022-12-18T03:50:54.917Z,14.15
2022-12-18T03:53:39.243Z,12.02
2022-12-18T03:56:07.500Z,10.93
2022-12-18T03:58:41.041Z,12.52
2022-12-18T04:01:18.999Z,11.90
2022-12-18T04:03:50.184Z,13.68
2022-12-18T04:06:19.324Z,12.85
2022-12-18T04:08:47.560Z,12.80
2022-12-18T04:11:17.592Z,11.73
2022-12-18T04:13:46.373Z,13.25
2022-12-18T04:16:20.791Z,12.27
2022-12-18T04:18:51.492Z,10.98
2022-12-18T04:21:20.313Z,11.15
2022-12-18T04:23:48.141Z,10.38
2022-12-18T04:26:14.757Z,10.77
2022-12-18T04:28:57.416Z,11.48
2022-12-18T04:31:24.095Z,12.70
2022-12-18T04:33:50.631Z,9.75
2022-12-18T04:36:17.557Z,11.70
2022-12-18T04:38:45.452Z,12.25
2022-12-18T04:41:15.364Z,12.73
2022-12-18T04:43:43.929Z,12.50
2022-12-18T04:46:10.593Z,12.68
2022-12-18T04:48:37.438Z,11.98
2022-12-18T04:51:05.142Z,12.30
2022-12-18T04:53:31.642Z,11.40
2022-12-18T04:56:05.973Z,11.57
2022-12-18T04:58:32.593Z,11.50
2022-12-18T05:00:59.125Z,10.35
2022-12-18T05:03:25.593Z,13.27
2022-12-18T05:05:52.765Z,12.27
2022-12-18T05:08:19.710Z,10.43
2022-12-18T05:10:46.583Z,11.50
2022-12-18T05:13:13.079Z,12.13
2022-12-18T05:15:39.647Z,15.27
2022-12-18T05:18:06.160Z,12.15
2022-12-18T05:20:32.850Z,11.50
2022-12-18T05:22:59.351Z,11.73
2022-12-18T05:25:26.006Z,11.30
2022-12-18T05:27:52.450Z,12.07
2022-12-18T05:30:18.943Z,10.63
2022-12-18T05:32:45.393Z,10.45
2022-12-18T05:35:12.330Z,12.35
2022-12-18T05:37:42.956Z,12.18
2022-12-18T05:40:10.784Z,11.57
2022-12-18T05:42:37.492Z,10.55
2022-12-18T05:45:05.063Z,11.68
2022-12-18T05:47:31.518Z,12.73
2022-12-18T05:49:58.067Z,11.40
2022-12-18T05:52:24.777Z,11.18
2022-12-18T05:54:51.209Z,11.57
2022-12-18T05:57:17.712Z,10.65
2022-12-18T05:59:44.432Z,10.25
2022-12-18T06:02:10.960Z,11.07
2022-12-18T06:04:37.549Z,11.00
2022-12-18T06:07:03.983Z,9.32
2022-12-18T06:09:30.724Z,10.75
2022-12-18T06:11:57.171Z,11.43
2022-12-18T06:14:23.640Z,11.50
2022-12-18T06:16:52.837Z,13.93
2022-12-18T06:19:19.290Z,14.23
2022-12-18T06:21:46.475Z,12.50
2022-12-18T06:24:12.954Z,13.07
2022-12-18T06:26:39.959Z,10.77
2022-12-18T06:29:06.534Z,12.23
2022-12-18T06:31:33.440Z,9.82
2022-12-18T06:34:03.178Z,10.48
2022-12-18T06:36:30.278Z,9.95
2022-12-18T06:38:57.447Z,9.40
2022-12-18T06:41:24.255Z,10.18
2022-12-18T06:43:50.799Z,10.25
2022-12-18T06:46:17.307Z,11.75
2022-12-18T06:48:43.858Z,10.73
2022-12-18T06:51:10.308Z,11.20
2022-12-18T06:53:36.980Z,9.52
2022-12-18T06:56:09.886Z,9.20
2022-12-18T06:58:37.923Z,10.25
2022-12-18T07:01:07.014Z,8.73
2022-12-18T07:03:33.550Z,8.93
2022-12-18T07:06:00.176Z,9.48
2022-12-18T07:08:27.030Z,10.23
2022-12-18T07:10:56.455Z,9.38
2022-12-18T07:13:23.465Z,8.48
2022-12-18T07:15:49.991Z,10.07
2022-12-18T07:18:16.484Z,8.73
2022-12-18T07:20:42.928Z,8.68
2022-12-18T07:23:09.432Z,7.47
2022-12-18T07:25:36.597Z,10.48
2022-12-18T07:28:03.930Z,10.20
2022-12-18T07:30:30.576Z,8.20
2022-12-18T07:32:57.022Z,8.27
2022-12-18T07:35:25.171Z,7.15
2022-12-18T07:37:52.355Z,7.85
2022-12-18T07:40:18.845Z,8.60
2022-12-18T07:42:45.275Z,9.23
2022-12-18T07:45:11.883Z,8.43
2022-12-18T07:47:38.462Z,7.35
2022-12-18T07:50:06.256Z,9.40
2022-12-18T07:52:32.723Z,9.90
2022-12-18T07:54:59.776Z,8.55
2022-12-18T08:00:13.280Z,8.52
2022-12-18T08:02:39.918Z,7.88
2022-12-18T08:05:06.658Z,8.15
2022-12-18T08:07:33.645Z,8.90
2022-12-18T08:10:00.146Z,8.80
2022-12-18T08:12:26.611Z,8.65
2022-12-18T08:14:53.243Z,9.65
2022-12-18T08:17:20.936Z,8.93
2022-12-18T08:19:47.399Z,9.60
2022-12-18T08:22:13.871Z,8.25
2022-12-18T08:24:40.300Z,9.20
2022-12-18T08:27:28.476Z,9.32
2022-12-18T08:29:53.163Z,8.63
2022-12-18T08:32:19.742Z,8.25
2022-12-18T08:34:46.259Z,8.95
2022-12-18T08:37:12.761Z,9.18
2022-12-18T08:39:39.210Z,7.95
2022-12-18T08:42:24.333Z,9.20
2022-12-18T08:44:50.783Z,8.70
2022-12-18T08:47:17.232Z,8.27
2022-12-18T08:49:43.682Z,8.85
2022-12-18T08:52:10.153Z,8.20
2022-12-18T08:54:36.614Z,10.30
2022-12-18T08:57:03.138Z,8.98
2022-12-18T08:59:29.735Z,8.63
2022-12-18T09:01:56.476Z,8.95
2022-12-18T09:04:23.618Z,8.32
2022-12-18T09:06:50.213Z,10.15
2022-12-18T09:09:16.693Z,10.75
2022-12-18T09:11:43.180Z,12.43
2022-12-18T09:14:10.850Z,12.63
2022-12-18T09:16:37.552Z,10.88
2022-12-18T09:19:05.752Z,8.95
2022-12-18T09:21:37.084Z,10.45
2022-12-18T09:24:05.236Z,10.10
2022-12-18T09:26:36.032Z,9.55
2022-12-18T09:29:03.856Z,10.02
2022-12-18T09:31:30.279Z,9.40
2022-12-18T09:33:57.675Z,8.90
2022-12-18T09:36:24.305Z,10.80
2022-12-18T09:38:51.429Z,10.70
2022-12-18T09:41:57.868Z,11.18
2022-12-18T09:44:28.038Z,9.27
2022-12-18T09:47:02.215Z,9.85
2022-12-18T09:49:31.941Z,9.77
2022-12-18T09:52:10.200Z,11.43
2022-12-18T09:54:40.879Z,10.75
2022-12-18T09:57:07.382Z,11.82
2022-12-18T09:59:40.617Z,12.10
2022-12-18T10:02:22.655Z,12.50
2022-12-18T10:05:15.167Z,12.10
2022-12-18T10:08:16.846Z,13.63
2022-12-18T10:10:53.196Z,14.05
2022-12-18T10:13:31.646Z,13.48
2022-12-18T10:18:45.432Z,12.07
2022-12-18T10:21:17.747Z,11.80
2022-12-18T10:24:03.864Z,10.48
2022-12-18T10:26:33.680Z,10.60
2022-12-18T10:29:05.322Z,15.85
2022-12-18T10:33:58.653Z,11.50
2022-12-18T10:36:26.250Z,13.00
2022-12-18T10:38:52.795Z,13.35
2022-12-18T10:41:19.983Z,14.27
2022-12-18T10:43:49.051Z,15.27
2022-12-18T10:46:20.642Z,13.60
2022-12-18T10:48:55.961Z,10.10
2022-12-18T10:51:31.542Z,14.32
2022-12-18T10:54:04.673Z,14.55
2022-12-18T10:56:35.814Z,15.38
2022-12-18T10:59:08.316Z,13.10
2022-12-18T11:01:50.597Z,13.45
2022-12-18T11:04:21.691Z,14.70
2022-12-18T11:07:03.822Z,15.23
2022-12-18T11:09:38.889Z,17.13
2022-12-18T11:12:17.676Z,16.70
2022-12-18T11:14:48.902Z,16.50
2022-12-18T11:17:27.119Z,15.63
2022-12-18T11:22:27.433Z,15.60
2022-12-18T11:25:30.677Z,12.85
2022-12-18T11:27:51.965Z,11.63
2022-12-18T11:30:35.660Z,15.02
2022-12-18T11:33:17.258Z,13.27
2022-12-18T11:35:54.662Z,11.73
2022-12-18T11:38:35.447Z,9.55
2022-12-18T11:41:22.968Z,14.52
2022-12-18T11:43:55.118Z,10.55
2022-12-18T11:46:33.322Z,13.38
2022-12-18T11:49:29.181Z,13.05
2022-12-18T11:52:20.575Z,12.70
2022-12-18T11:54:54.260Z,10.25
2022-12-18T11:57:50.255Z,15.35
2022-12-18T12:00:19.814Z,12.52
2022-12-18T12:03:14.196Z,12.27
2022-12-18T12:05:59.783Z,10.25
2022-12-18T12:08:59.357Z,12.40
2022-12-18T12:11:50.217Z,9.77
2022-12-18T12:14:25.929Z,15.20
2022-12-18T12:16:59.740Z,14.48
2022-12-18T12:19:44.710Z,11.25
2022-12-18T12:22:40.665Z,12.20
2022-12-18T12:25:29.812Z,10.30
2022-12-18T12:28:08.460Z,10.82
2022-12-18T12:31:03.847Z,11.55
2022-12-18T12:33:48.567Z,11.63
2022-12-18T12:36:32.034Z,11.52
2022-12-18T12:39:02.468Z,10.18
2022-12-18T12:41:53.098Z,9.98
2022-12-18T12:44:35.306Z,9.70
2022-12-18T12:47:16.454Z,12.77
2022-12-18T12:49:48.471Z,12.25
2022-12-18T12:52:25.673Z,11.38
2022-12-18T12:54:52.760Z,9.40
2022-12-18T12:57:35.365Z,10.25
2022-12-18T13:00:13.800Z,11.82
2022-12-18T13:03:05.714Z,11.85
2022-12-18T13:05:41.405Z,7.43
2022-12-18T13:08:11.088Z,11.35
2022-12-18T13:10:40.340Z,10.73
2022-12-18T13:13:13.318Z,10.63
2022-12-18T13:15:43.998Z,10.70
2022-12-18T13:18:16.126Z,9.40
2022-12-18T13:21:03.776Z,9.40
2022-12-18T13:23:42.402Z,10.65
2022-12-18T13:26:09.265Z,10.02
2022-12-18T13:28:47.922Z,12.25
2022-12-18T13:31:49.541Z,12.25
2022-12-18T13:34:27.664Z,11.95
2022-12-18T13:36:58.225Z,11.85
2022-12-18T13:39:34.779Z,10.77
2022-12-18T13:42:08.430Z,10.70
2022-12-18T13:44:40.682Z,12.13
2022-12-18T13:47:25.751Z,11.18
2022-12-18T13:52:22.478Z,9.48
2022-12-18T13:54:56.457Z,12.30
2022-12-18T13:57:33.874Z,10.88
2022-12-18T14:00:17.719Z,10.13
2022-12-18T14:02:46.529Z,9.68
2022-12-18T14:05:35.268Z,9.32
2022-12-18T14:08:13.642Z,9.45
2022-12-18T14:10:48.568Z,10.82
2022-12-18T14:13:30.324Z,11.93
2022-12-18T14:15:57.763Z,11.18
2022-12-18T14:18:31.554Z,12.15
2022-12-18T14:21:00.583Z,10.98
2022-12-18T14:23:39.504Z,11.02
2022-12-18T14:26:28.153Z,11.38
2022-12-18T14:28:56.360Z,13.00
2022-12-18T14:31:26.332Z,12.25
2022-12-18T14:33:54.041Z,11.88
2022-12-18T14:36:25.354Z,12.60
2022-12-18T14:38:54.791Z,11.80
2022-12-18T14:41:22.400Z,11.50
2022-12-18T14:43:51.618Z,11.38
2022-12-18T14:46:35.415Z,9.88
2022-12-18T14:49:23.053Z,8.63
2022-12-18T14:51:51.813Z,11.10
2022-12-18T14:54:20.755Z,10.90
2022-12-18T14:56:50.187Z,9.90
2022-12-18T14:59:24.196Z,8.38
2022-12-18T15:02:01.156Z,11.25
2022-12-18T15:04:31.956Z,10.20
2022-12-18T15:07:20.695Z,9.93
2022-12-18T15:10:17.098Z,12.60
2022-12-18T15:12:49.519Z,10.57
2022-12-18T15:15:34.713Z,11.65
2022-12-18T15:18:03.057Z,9.75
2022-12-18T15:20:33.547Z,9.60
2022-12-18T15:23:00.121Z,10.25
2022-12-18T15:25:33.328Z,11.75
2022-12-18T15:27:59.783Z,10.38
2022-12-18T15:30:26.884Z,9.75
2022-12-18T15:33:13.688Z,11.70
2022-12-18T15:35:45.244Z,9.88
2022-12-18T15:38:13.323Z,9.43
2022-12-18T15:40:39.818Z,10.95
2022-12-18T15:43:24.929Z,8.85
2022-12-18T15:45:51.396Z,7.72
2022-12-18T15:48:24.293Z,10.43
2022-12-18T15:50:53.430Z,10.07
2022-12-18T15:53:20.109Z,7.55
2022-12-18T15:56:05.062Z,12.13
2022-12-18T15:58:31.495Z,11.73
2022-12-18T16:01:00.023Z,7.07
2022-12-18T16:03:26.525Z,7.28
2022-12-18T16:05:53.233Z,11.50
2022-12-18T16:08:21.021Z,9.40
2022-12-18T16:10:47.607Z,9.68
2022-12-18T16:13:20.101Z,8.18
2022-12-18T16:15:46.672Z,9.35
2022-12-18T16:18:13.341Z,11.23
2022-12-18T16:20:40.462Z,12.02
2022-12-18T16:23:07.374Z,10.85
2022-12-18T16:25:34.264Z,10.15
2022-12-18T16:28:00.678Z,9.60
2022-12-18T16:30:33.098Z,10.05
2022-12-18T16:33:05.730Z,11.18
2022-12-18T16:35:34.401Z,11.43
2022-12-18T16:38:00.837Z,12.63
2022-12-18T16:40:27.330Z,12.75
2022-12-18T16:42:54.084Z,9.32
2022-12-18T16:45:20.711Z,11.27
2022-12-18T16:47:47.307Z,11.70
2022-12-18T16:50:13.866Z,9.43
2022-12-18T16:52:40.703Z,10.50
2022-12-18T16:55:07.894Z,11.20
2022-12-18T16:57:34.407Z,9.88
2022-12-18T17:00:05.259Z,13.10
2022-12-18T17:02:32.947Z,9.15
2022-12-18T17:04:59.677Z,10.32
2022-12-18T17:07:26.952Z,9.65
2022-12-18T17:09:54.315Z,10.25
2022-12-18T17:12:21.620Z,10.77
2022-12-18T17:14:48.448Z,9.10
2022-12-18T17:17:23.747Z,13.55
2022-12-18T17:19:52.269Z,9.85
2022-12-18T17:22:19.594Z,13.07
2022-12-18T17:24:47.156Z,12.52
2022-12-18T17:27:13.994Z,12.82
2022-12-18T17:29:46.891Z,8.73
2022-12-18T17:32:14.800Z,8.63
2022-12-18T17:34:41.372Z,9.95
2022-12-18T17:37:08.480Z,11.80
2022-12-18T17:39:34.980Z,11.25
2022-12-18T17:42:01.478Z,10.10
2022-12-18T17:44:28.023Z,10.60
2022-12-18T17:46:54.678Z,11.43
2022-12-18T17:49:21.665Z,11.48
2022-12-18T17:51:48.754Z,9.15
2022-12-18T17:54:15.233Z,10.68
2022-12-18T17:56:41.737Z,10.73
2022-12-18T17:59:08.379Z,13.38
2022-12-18T18:01:38.506Z,14.07
2022-12-18T18:04:07.750Z,11.50
2022-12-18T18:06:34.446Z,10.95
2022-12-18T18:09:03.932Z,10.05
2022-12-18T18:11:49.039Z,12.95
2022-12-18T18:14:20.784Z,11.10
2022-12-18T18:16:49.654Z,11.73
2022-12-18T18:19:21.770Z,10.75
2022-12-18T18:21:50.126Z,11.32
2022-12-18T18:24:20.395Z,11.65
2022-12-18T18:26:47.133Z,7.35
2022-12-18T18:29:23.676Z,10.93
2022-12-18T18:31:52.595Z,12.45
2022-12-18T18:34:22.731Z,10.95
2022-12-18T18:36:49.395Z,10.23
2022-12-18T18:39:16.257Z,12.45
2022-12-18T18:41:48.014Z,11.95
2022-12-18T18:44:18.780Z,12.23
2022-12-18T18:46:45.428Z,11.45
2022-12-18T18:49:13.730Z,10.90
2022-12-18T18:51:41.145Z,11.65
2022-12-18T18:54:08.049Z,10.05
2022-12-18T18:57:11.676Z,12.00
2022-12-18T18:59:22.448Z,11.57
2022-12-18T19:01:56.934Z,12.10
2022-12-18T19:04:23.586Z,11.70
2022-12-18T19:06:50.096Z,8.00
2022-12-18T19:09:17.218Z,10.45
2022-12-18T19:12:02.433Z,10.57
2022-12-18T19:14:29.415Z,9.88
2022-12-18T19:16:55.927Z,9.30
2022-12-18T19:19:23.486Z,8.65
2022-12-18T19:21:50.255Z,8.02
2022-12-18T19:24:16.713Z,9.73
2022-12-18T19:26:43.632Z,9.93
2022-12-18T19:29:12.055Z,9.68
2022-12-18T19:31:40.200Z,11.32
2022-12-18T19:34:07.848Z,8.48
2022-12-18T19:36:37.654Z,12.15
2022-12-18T19:39:09.643Z,10.85
2022-12-18T19:41:36.066Z,10.30
2022-12-18T19:44:07.958Z,9.98
2022-12-18T19:46:35.685Z,9.15
2022-12-18T19:49:02.657Z,8.70
2022-12-18T19:51:30.372Z,12.10
2022-12-18T19:53:59.930Z,12.18
2022-12-18T19:56:34.250Z,8.05
2022-12-18T19:59:01.770Z,10.13
2022-12-18T20:01:30.281Z,7.32
2022-12-18T20:03:58.311Z,8.57
2022-12-18T20:06:32.834Z,9.82
2022-12-18T20:09:05.381Z,8.07
2022-12-18T20:11:33.824Z,10.45
2022-12-18T20:14:06.525Z,8.95
2022-12-18T20:16:33.068Z,10.27
2022-12-18T20:19:00.207Z,8.65
2022-12-18T20:21:26.772Z,10.25
2022-12-18T20:23:54.781Z,7.57
2022-12-18T20:26:22.436Z,10.68
2022-12-18T20:28:48.867Z,11.68
2022-12-18T20:31:15.294Z,10.55
2022-12-18T20:33:42.610Z,9.20
2022-12-18T20:36:15.341Z,8.38
2022-12-18T20:38:43.264Z,11.27
2022-12-18T20:41:16.335Z,11.70
2022-12-18T20:43:43.313Z,8.68
2022-12-18T20:46:12.045Z,11.50
2022-12-18T20:48:38.631Z,8.18
2022-12-18T20:51:08.135Z,9.73
2022-12-18T20:53:35.801Z,8.48
2022-12-18T20:56:08.318Z,11.15
2022-12-18T20:58:35.560Z,9.68
2022-12-18T21:01:07.830Z,10.70
2022-12-18T21:03:36.187Z,10.00
2022-12-18T21:06:03.463Z,11.40
2022-12-18T21:08:30.256Z,9.73
2022-12-18T21:10:56.721Z,11.02
2022-12-18T21:13:23.660Z,9.68
2022-12-18T21:15:53.398Z,10.98
2022-12-18T21:18:20.349Z,9.55
2022-12-18T21:20:46.911Z,9.85
2022-12-18T21:23:16.602Z,8.02
2022-12-18T21:25:44.111Z,8.23
2022-12-18T21:28:12.079Z,9.52
2022-12-18T21:30:38.802Z,9.88
2022-12-18T21:33:05.269Z,11.43
2022-12-18T21:35:32.131Z,8.88
2022-12-18T21:37:58.728Z,7.30
2022-12-18T21:40:25.330Z,9.40
2022-12-18T21:43:10.217Z,10.27
2022-12-18T21:45:39.742Z,8.02
2022-12-18T21:48:06.291Z,11.63
2022-12-18T21:50:32.713Z,9.50
2022-12-18T21:52:59.192Z,9.25
2022-12-18T21:55:25.887Z,8.32
2022-12-18T21:57:54.484Z,9.88
2022-12-18T22:00:20.965Z,10.85
2022-12-18T22:03:01.146Z,9.57
2022-12-18T22:05:35.156Z,13.00
2022-12-18T22:08:01.747Z,9.98
2022-12-18T22:10:28.572Z,10.85
2022-12-18T22:12:55.208Z,10.70
2022-12-18T22:15:22.060Z,10.27
2022-12-18T22:17:50.238Z,11.40
2022-12-18T22:20:17.629Z,7.93
2022-12-18T22:22:46.321Z,9.48
2022-12-18T22:25:12.871Z,10.10
2022-12-18T22:27:39.330Z,9.38
2022-12-18T22:30:06.396Z,9.95
2022-12-18T22:32:35.009Z,8.25
2022-12-18T22:35:08.390Z,9.52
2022-12-18T22:37:39.359Z,9.95
2022-12-18T22:40:07.442Z,8.10
2022-12-18T22:42:34.946Z,10.90
2022-12-18T22:45:01.473Z,9.85
2022-12-18T22:47:30.160Z,11.82
2022-12-18T22:49:57.728Z,8.55
2022-12-18T22:52:24.799Z,10.93
2022-12-18T22:54:51.396Z,8.77
2022-12-18T22:57:20.108Z,11.38
2022-12-18T22:59:46.591Z,11.10
2022-12-18T23:02:13.167Z,11.07
2022-12-18T23:04:39.768Z,10.60
2022-12-18T23:07:06.779Z,10.98
2022-12-18T23:09:33.385Z,14.38
2022-12-18T23:12:00.227Z,12.27
2022-12-18T23:14:27.519Z,12.32
2022-12-18T23:16:53.976Z,9.32
2022-12-18T23:19:21.406Z,10.95
2022-12-18T23:21:50.857Z,9.88
2022-12-18T23:24:17.460Z,10.00
2022-12-18T23:26:43.899Z,8.57
2022-12-18T23:29:10.406Z,11.52
2022-12-18T23:31:38.627Z,10.77
2022-12-18T23:34:06.792Z,10.88
2022-12-18T23:36:40.283Z,12.93
2022-12-18T23:39:15.415Z,12.60
2022-12-18T23:41:56.026Z,11.75
2022-12-18T23:44:22.565Z,10.80
2022-12-18T23:46:49.117Z,13.10
2022-12-18T23:49:15.655Z,10.32
2022-12-18T23:51:42.116Z,11.85
2022-12-18T23:54:09.893Z,12.85
2022-12-18T23:56:36.386Z,9.07
2022-12-18T23:59:02.912Z,13.57
